Time;durP1;ratioP1;P1;durP2;ratioP2;P2;SDS_P1;SDS_P2;PMS_P1;PMS_P2;Temp;Humidity;BMP_temperature;BMP_pressure;BME280_temperature;BME280_humidity;BME280_pressure;Samples;Min_cycle;Max_cycle;Signal;HPM_P1;HPM_P2
2023/01/03 00:01:09;;;;;;;24.27;10.43;;;4.30;99.90;;;;;;5004928;28;20046;-45
2023/01/03 00:03:38;;;;;;;17.48;10.07;;;4.30;99.90;;;;;;5003349;28;20054;-64
2023/01/03 00:06:05;;;;;;;19.40;9.85;;;4.20;99.90;;;;;;4997282;28;20049;-61
2023/01/03 00:08:31;;;;;;;29.58;9.35;;;4.30;99.90;;;;;;5004112;28;20046;-62
2023/01/03 00:10:58;;;;;;;21.73;10.30;;;4.30;99.90;;;;;;4999717;28;20081;-62
2023/01/03 00:13:24;;;;;;;19.13;9.60;;;4.20;99.90;;;;;;4982980;28;20062;-64
2023/01/03 00:15:51;;;;;;;18.48;9.35;;;4.20;99.90;;;;;;5011944;28;20056;-66
2023/01/03 00:18:18;;;;;;;17.33;8.68;;;4.20;99.90;;;;;;5023284;28;20150;-71
2023/01/03 00:20:46;;;;;;;14.65;8.80;;;4.20;99.90;;;;;;5005117;28;20054;-60
2023/01/03 00:23:13;;;;;;;19.23;9.30;;;4.10;99.90;;;;;;5022125;28;20045;-68
2023/01/03 00:25:39;;;;;;;17.40;9.50;;;4.10;99.90;;;;;;5013194;28;20385;-66
2023/01/03 00:28:06;;;;;;;21.50;9.82;;;4.20;99.90;;;;;;5005428;28;20104;-63
2023/01/03 00:30:33;;;;;;;15.70;8.68;;;4.10;99.90;;;;;;5008015;28;20054;-68
2023/01/03 00:33:00;;;;;;;18.17;9.43;;;4.10;99.90;;;;;;5004167;28;20045;-64
2023/01/03 00:35:27;;;;;;;15.43;9.00;;;4.10;99.90;;;;;;5002796;28;20446;-65
2023/01/03 00:37:55;;;;;;;23.23;10.52;;;4.00;99.90;;;;;;5003088;28;20085;-66
2023/01/03 00:40:22;;;;;;;25.58;11.13;;;4.10;99.90;;;;;;5002998;28;20560;-70
2023/01/03 00:45:33;;;;;;;21.10;10.00;;;4.00;99.90;;;;;;5020156;28;20077;-63
2023/01/03 00:47:59;;;;;;;17.48;9.85;;;4.00;99.90;;;;;;5001625;28;20096;-67
2023/01/03 00:50:26;;;;;;;20.35;10.57;;;4.00;99.90;;;;;;5018922;28;20267;-65
2023/01/03 00:52:54;;;;;;;19.48;9.25;;;4.00;99.90;;;;;;5007071;28;20104;-68
2023/01/03 00:55:21;;;;;;;19.70;11.35;;;4.00;99.90;;;;;;5000686;28;20499;-66
2023/01/03 00:57:48;;;;;;;19.88;10.85;;;4.00;99.90;;;;;;5001180;28;20050;-68
2023/01/03 01:00:15;;;;;;;16.25;9.23;;;4.00;99.90;;;;;;5000193;28;20459;-68
2023/01/03 01:02:42;;;;;;;15.68;9.50;;;3.90;99.90;;;;;;4982250;28;20101;-67
2023/01/03 01:05:09;;;;;;;22.40;9.27;;;3.90;99.90;;;;;;4981383;28;20491;-67
2023/01/03 01:07:36;;;;;;;19.42;10.05;;;3.90;99.90;;;;;;4994142;28;20077;-68
2023/01/03 01:10:04;;;;;;;20.60;10.85;;;4.00;99.90;;;;;;5015029;28;20449;-75
2023/01/03 01:12:31;;;;;;;26.75;11.00;;;3.90;99.90;;;;;;5018169;28;20451;-67
2023/01/03 01:14:58;;;;;;;27.50;11.05;;;3.90;99.90;;;;;;5017428;28;20111;-67
2023/01/03 01:17:27;;;;;;;22.13;11.27;;;3.90;99.90;;;;;;5000039;28;20561;-67
2023/01/03 01:19:53;;;;;;;22.95;11.15;;;3.90;99.90;;;;;;4998367;28;20050;-68
2023/01/03 01:22:20;;;;;;;22.65;10.80;;;3.80;99.90;;;;;;5010376;28;20131;-65
2023/01/03 01:24:47;;;;;;;22.70;11.75;;;3.90;99.90;;;;;;5017402;28;20100;-69
2023/01/03 01:27:15;;;;;;;24.27;11.15;;;3.80;99.90;;;;;;4997611;28;20092;-66
2023/01/03 01:29:42;;;;;;;22.70;11.85;;;3.80;99.90;;;;;;4982715;28;20562;-67
2023/01/03 01:32:09;;;;;;;25.23;10.90;;;3.80;99.90;;;;;;5007586;28;20081;-67
2023/01/03 01:34:36;;;;;;;22.60;10.82;;;3.80;99.90;;;;;;5011769;28;20468;-64
2023/01/03 01:37:02;;;;;;;24.55;11.65;;;3.80;99.90;;;;;;4999182;28;20140;-62
2023/01/03 01:39:29;;;;;;;24.58;11.55;;;3.80;99.90;;;;;;4998444;28;20491;-66
2023/01/03 01:44:50;;;;;;;26.25;11.32;;;3.70;99.90;;;;;;5016159;28;20504;-67
2023/01/03 01:47:21;;;;;;;21.30;10.93;;;3.70;99.90;;;;;;5010515;28;20050;-66
2023/01/03 01:49:55;;;;;;;26.55;12.30;;;3.70;99.90;;;;;;5006452;28;20050;-66
2023/01/03 01:52:22;;;;;;;21.75;12.15;;;3.70;99.90;;;;;;4999727;28;20096;-68
2023/01/03 01:54:50;;;;;;;23.25;11.77;;;3.70;99.90;;;;;;5016457;28;20054;-68
2023/01/03 01:57:18;;;;;;;22.33;11.60;;;3.70;99.90;;;;;;5016681;28;20054;-66
2023/01/03 01:59:46;;;;;;;21.00;11.68;;;3.60;99.90;;;;;;5016277;28;20092;-65
2023/01/03 02:02:13;;;;;;;30.65;13.52;;;3.60;99.90;;;;;;4998065;28;20080;-68
2023/01/03 02:04:40;;;;;;;28.60;13.20;;;3.60;99.90;;;;;;5016197;28;20049;-66
2023/01/03 02:07:06;;;;;;;22.48;13.52;;;3.60;99.90;;;;;;5015614;28;20529;-66
2023/01/03 02:09:34;;;;;;;23.73;13.95;;;3.70;99.90;;;;;;5014222;28;20089;-66
2023/01/03 02:14:58;;;;;;;31.63;15.65;;;3.60;99.90;;;;;;4997869;28;20690;-64
2023/01/03 02:17:32;;;;;;;29.23;14.88;;;3.70;99.90;;;;;;5001544;28;20041;-66
2023/01/03 02:20:18;;;;;;;26.52;14.73;;;3.60;99.90;;;;;;4995592;28;20090;-68
2023/01/03 02:23:04;;;;;;;34.10;15.48;;;3.60;99.90;;;;;;5011127;28;20437;-64
2023/01/03 02:25:54;;;;;;;34.80;17.05;;;3.60;99.90;;;;;;4998139;28;20057;-67
2023/01/03 02:28:42;;;;;;;30.38;16.40;;;3.60;99.90;;;;;;4997534;28;20160;-67
2023/01/03 02:31:11;;;;;;;29.48;16.23;;;3.60;99.90;;;;;;4995729;28;20104;-67
2023/01/03 02:33:40;;;;;;;28.63;15.55;;;3.60;99.90;;;;;;4997020;28;20108;-67
2023/01/03 02:36:10;;;;;;;31.05;15.35;;;3.60;99.90;;;;;;5014580;28;20046;-66
2023/01/03 02:38:43;;;;;;;33.53;16.42;;;3.60;99.90;;;;;;4997466;28;20478;-67
2023/01/03 02:41:12;;;;;;;39.05;16.75;;;3.60;99.90;;;;;;5014846;28;20494;-65
2023/01/03 02:43:41;;;;;;;36.00;16.27;;;3.60;99.90;;;;;;5013762;28;20081;-66
2023/01/03 02:46:11;;;;;;;36.55;16.88;;;3.60;99.90;;;;;;5015047;28;20054;-65
2023/01/03 02:48:43;;;;;;;28.42;15.18;;;3.60;99.90;;;;;;4998097;28;20054;-62
2023/01/03 02:51:13;;;;;;;35.00;17.83;;;3.70;99.90;;;;;;4994449;28;20085;-63
2023/01/03 02:53:41;;;;;;;38.85;17.65;;;3.70;99.90;;;;;;4986730;28;20046;-65
2023/01/03 02:56:11;;;;;;;33.05;17.17;;;3.60;99.90;;;;;;4997918;28;20089;-65
2023/01/03 02:58:38;;;;;;;39.10;19.38;;;3.60;99.90;;;;;;5014843;28;20049;-65
2023/01/03 03:01:05;;;;;;;38.67;19.48;;;3.60;99.90;;;;;;4999841;28;20402;-62
2023/01/03 03:03:36;;;;;;;37.20;18.23;;;3.60;99.90;;;;;;5014910;28;20050;-62
2023/01/03 03:06:07;;;;;;;38.63;18.13;;;3.70;99.90;;;;;;5014130;28;20061;-60
2023/01/03 03:08:33;;;;;;;36.38;17.40;;;3.60;99.90;;;;;;4991444;28;20136;-66
2023/01/03 03:13:46;;;;;;;40.78;20.00;;;3.60;99.90;;;;;;4995343;28;20157;-59
2023/01/03 03:16:17;;;;;;;34.13;18.77;;;3.60;99.90;;;;;;4981695;28;20096;-65
2023/01/03 03:18:57;;;;;;;34.20;18.67;;;3.60;99.90;;;;;;5015318;28;20461;-57
2023/01/03 03:26:55;;;;;;;45.88;22.63;;;3.50;99.90;;;;;;5003107;28;20054;-65
2023/01/03 03:29:21;;;;;;;45.95;22.35;;;3.50;99.90;;;;;;5015517;28;20053;-66
2023/01/03 03:31:49;;;;;;;43.88;22.10;;;3.50;99.90;;;;;;5014315;28;20552;-66
2023/01/03 03:34:18;;;;;;;48.90;24.50;;;3.50;99.90;;;;;;5010014;28;20081;-67
2023/01/03 03:36:48;;;;;;;53.60;25.33;;;3.50;99.90;;;;;;4997632;28;20062;-67
2023/01/03 03:47:26;;;;;;;52.45;24.15;;;3.50;99.90;;;;;;5013408;28;20067;-67
2023/01/03 03:49:56;;;;;;;44.03;24.38;;;3.50;99.90;;;;;;4995807;28;20137;-67
2023/01/03 03:52:25;;;;;;;52.17;25.13;;;3.40;99.90;;;;;;5014290;28;20142;-66
2023/01/03 03:54:55;;;;;;;47.22;24.55;;;3.50;99.90;;;;;;4988644;28;20113;-63
2023/01/03 03:57:24;;;;;;;51.20;23.63;;;3.50;99.90;;;;;;4981114;28;20038;-66
2023/01/03 03:59:52;;;;;;;50.28;24.40;;;3.50;99.90;;;;;;5013827;28;20045;-64
2023/01/03 04:02:19;;;;;;;53.70;25.33;;;3.50;99.90;;;;;;5013017;28;20050;-65
2023/01/03 04:04:47;;;;;;;49.10;23.13;;;3.50;99.90;;;;;;5009909;28;20131;-65
2023/01/03 04:07:15;;;;;;;40.63;23.35;;;3.50;99.90;;;;;;4994086;28;20050;-66
2023/01/03 04:09:42;;;;;;;47.95;24.08;;;3.50;99.90;;;;;;4994357;28;20105;-62
2023/01/03 04:12:09;;;;;;;47.10;24.17;;;3.50;99.90;;;;;;4993364;28;20093;-61
2023/01/03 04:14:36;;;;;;;46.78;24.33;;;3.40;99.90;;;;;;4992223;28;20483;-61
2023/01/03 04:17:02;;;;;;;46.45;22.73;;;3.50;99.90;;;;;;4993797;28;20079;-66
2023/01/03 04:19:29;;;;;;;48.80;24.00;;;3.50;99.90;;;;;;5006801;28;20046;-66
2023/01/03 04:21:56;;;;;;;45.22;22.40;;;3.40;99.90;;;;;;4995223;28;20054;-66
2023/01/03 04:24:25;;;;;;;43.63;23.17;;;3.50;99.90;;;;;;4996005;28;20081;-64
2023/01/03 04:26:51;;;;;;;45.58;23.00;;;3.40;99.90;;;;;;5003589;28;20054;-63
2023/01/03 04:29:18;;;;;;;44.90;23.52;;;3.40;99.90;;;;;;4994254;28;20050;-65
2023/01/03 04:31:45;;;;;;;44.55;22.45;;;3.30;99.90;;;;;;4991120;28;20054;-65
2023/01/03 04:34:12;;;;;;;43.38;21.70;;;3.30;99.90;;;;;;5013837;28;20112;-58
2023/01/03 04:36:39;;;;;;;49.50;25.27;;;3.40;99.90;;;;;;4995205;28;20049;-65
2023/01/03 04:39:05;;;;;;;48.05;23.77;;;3.40;99.90;;;;;;4992105;28;20061;-59
2023/01/03 04:41:34;;;;;;;53.72;23.67;;;3.40;99.90;;;;;;5008850;28;20082;-62
2023/01/03 04:44:15;;;;;;;51.10;24.48;;;3.40;99.90;;;;;;4992767;28;20050;-67
2023/01/03 04:46:42;;;;;;;48.55;22.90;;;3.40;99.90;;;;;;5012860;28;20053;-63
2023/01/03 04:49:09;;;;;;;44.20;23.20;;;3.40;99.90;;;;;;4978535;28;20050;-65
2023/01/03 04:51:36;;;;;;;45.80;24.00;;;3.40;99.90;;;;;;4993203;28;20078;-65
2023/01/03 04:54:03;;;;;;;49.55;24.42;;;3.40;99.90;;;;;;4988901;28;20145;-64
2023/01/03 04:56:30;;;;;;;53.80;24.38;;;3.50;99.90;;;;;;5011565;28;20092;-63
2023/01/03 04:58:58;;;;;;;50.33;23.50;;;3.40;99.90;;;;;;5003792;28;20572;-61
2023/01/03 05:01:25;;;;;;;47.55;23.17;;;3.50;99.90;;;;;;5013795;28;20084;-65
2023/01/03 05:03:56;;;;;;;49.17;23.25;;;3.50;99.90;;;;;;4998047;28;20113;-64
2023/01/03 05:06:22;;;;;;;41.75;21.58;;;3.40;99.90;;;;;;5013452;28;20045;-64
2023/01/03 05:08:49;;;;;;;50.85;23.85;;;3.50;99.90;;;;;;4997321;28;20465;-61
2023/01/03 05:11:16;;;;;;;42.58;21.52;;;3.50;99.90;;;;;;4997633;28;20100;-62
2023/01/03 05:13:43;;;;;;;46.85;22.55;;;3.50;99.90;;;;;;5015647;28;20050;-61
2023/01/03 05:16:12;;;;;;;42.97;22.73;;;3.50;99.90;;;;;;5015191;28;20410;-64
2023/01/03 05:18:39;;;;;;;41.65;20.58;;;3.50;99.90;;;;;;4998189;28;20494;-60
2023/01/03 05:26:36;;;;;;;48.55;23.67;;;3.50;99.90;;;;;;4987992;28;20497;-60
2023/01/03 05:29:03;;;;;;;38.97;21.42;;;3.40;99.90;;;;;;5015648;28;20046;-63
2023/01/03 05:31:31;;;;;;;41.13;22.85;;;3.40;99.90;;;;;;4997585;28;20489;-64
2023/01/03 05:33:59;;;;;;;42.10;22.52;;;3.40;99.90;;;;;;5015772;28;20089;-61
2023/01/03 05:36:25;;;;;;;43.00;22.63;;;3.40;99.90;;;;;;5000042;28;20113;-61
2023/01/03 05:38:52;;;;;;;43.85;22.38;;;3.40;99.90;;;;;;4996428;28;20058;-64
2023/01/03 05:41:58;;;;;;;39.75;22.83;;;3.30;99.90;;;;;;4977456;28;20054;-58
2023/01/03 05:44:06;;;;;;;36.55;21.08;;;3.30;99.90;;;;;;4976986;28;20050;-60
2023/01/03 05:46:34;;;;;;;40.13;23.38;;;3.30;99.90;;;;;;5011898;28;20054;-64
2023/01/03 05:49:01;;;;;;;42.85;22.85;;;3.30;99.90;;;;;;5014376;28;20142;-64
2023/01/03 05:51:28;;;;;;;49.65;25.70;;;3.20;99.90;;;;;;5014628;28;20112;-58
2023/01/03 05:53:54;;;;;;;43.90;25.17;;;3.20;99.90;;;;;;4996360;28;20081;-60
2023/01/03 05:56:21;;;;;;;42.50;23.63;;;3.20;99.90;;;;;;4998797;28;20388;-63
2023/01/03 05:58:48;;;;;;;42.95;25.42;;;3.10;99.90;;;;;;5001447;28;20050;-64
2023/01/03 06:01:15;;;;;;;50.42;25.50;;;3.10;99.90;;;;;;4995608;28;20049;-58
2023/01/03 06:03:44;;;;;;;43.25;24.10;;;3.10;99.90;;;;;;4998830;28;20048;-64
2023/01/03 06:06:12;;;;;;;39.28;23.30;;;3.10;99.90;;;;;;4999009;28;20056;-66
2023/01/03 06:08:38;;;;;;;41.03;23.95;;;3.10;99.90;;;;;;4998774;28;20050;-67
2023/01/03 06:11:06;;;;;;;44.80;25.52;;;3.00;99.90;;;;;;4997954;28;20057;-61
2023/01/03 06:13:32;;;;;;;45.35;25.92;;;3.00;99.90;;;;;;4997359;28;20057;-57
2023/01/03 06:18:48;;;;;;;46.00;25.63;;;3.00;99.90;;;;;;4999051;28;20137;-62
2023/01/03 06:21:15;;;;;;;43.90;24.30;;;2.90;99.90;;;;;;5016718;28;20123;-64
2023/01/03 06:23:44;;;;;;;50.05;29.08;;;2.90;99.90;;;;;;5015572;28;20068;-67
2023/01/03 06:26:11;;;;;;;50.75;26.25;;;2.90;99.90;;;;;;4998237;28;20053;-66
2023/01/03 06:28:37;;;;;;;50.53;27.02;;;2.90;99.90;;;;;;5008149;28;20439;-57
2023/01/03 06:31:04;;;;;;;47.63;26.30;;;2.90;99.90;;;;;;5012481;28;20078;-64
2023/01/03 06:33:31;;;;;;;49.90;27.77;;;2.80;99.90;;;;;;5015375;28;20085;-61
2023/01/03 06:36:02;;;;;;;44.63;25.08;;;2.80;99.90;;;;;;4997539;28;20490;-53
2023/01/03 06:38:28;;;;;;;47.05;26.10;;;2.80;99.90;;;;;;4998855;28;20053;-59
2023/01/03 06:40:55;;;;;;;51.45;26.75;;;2.80;99.90;;;;;;5016060;28;20092;-53
2023/01/03 06:43:22;;;;;;;45.33;26.45;;;2.80;99.90;;;;;;4995917;28;20076;-54
2023/01/03 06:54:05;;;;;;;49.10;28.45;;;2.70;99.90;;;;;;4983728;22;20687;-58
2023/01/03 06:56:32;;;;;;;53.28;29.98;;;2.70;99.90;;;;;;5060822;28;20765;-58
2023/01/03 06:58:58;;;;;;;57.65;29.60;;;2.80;99.90;;;;;;5056012;28;20078;-56
2023/01/03 07:01:25;;;;;;;53.55;28.77;;;2.70;99.90;;;;;;5056126;28;20040;-56
2023/01/03 07:03:52;;;;;;;54.70;29.20;;;2.60;99.90;;;;;;5039892;28;20163;-59
2023/01/03 07:06:20;;;;;;;52.65;29.25;;;2.60;99.90;;;;;;5040191;28;20110;-47
2023/01/03 07:08:47;;;;;;;51.78;30.80;;;2.60;99.90;;;;;;5039262;28;20138;-51
2023/01/03 07:11:14;;;;;;;52.58;30.08;;;2.60;99.90;;;;;;5060351;28;20067;-49
2023/01/03 07:13:57;;;;;;;59.33;31.25;;;2.60;99.90;;;;;;5055936;28;20561;-45
2023/01/03 07:16:25;;;;;;;56.95;30.60;;;2.60;99.90;;;;;;5055318;28;20041;-69
2023/01/03 07:18:52;;;;;;;54.03;28.90;;;2.50;99.90;;;;;;5055632;28;20113;-47
2023/01/03 07:21:20;;;;;;;59.53;31.23;;;2.50;99.90;;;;;;5056148;28;20599;-55
2023/01/03 07:23:47;;;;;;;53.22;30.15;;;2.50;99.90;;;;;;5055355;28;20135;-61
2023/01/03 07:26:14;;;;;;;53.78;29.80;;;2.50;99.90;;;;;;5039988;28;20052;-63
2023/01/03 07:28:40;;;;;;;61.67;27.88;;;2.40;99.90;;;;;;5058053;28;20153;-60
2023/01/03 07:31:07;;;;;;;64.10;26.52;;;2.50;99.90;;;;;;5053419;28;20105;-46
2023/01/03 07:33:36;;;;;;;70.35;25.05;;;2.40;99.90;;;;;;5056854;28;20561;-48
2023/01/03 07:36:03;;;;;;;161.10;26.15;;;2.30;99.90;;;;;;5056847;28;20052;-58
2023/01/03 07:38:31;;;;;;;128.63;25.02;;;2.20;99.90;;;;;;5057493;28;21204;-54
2023/01/03 07:40:58;;;;;;;154.05;25.35;;;2.10;99.90;;;;;;5056734;28;20129;-59
2023/01/03 07:43:36;;;;;;;75.45;24.25;;;2.20;99.90;;;;;;5058228;28;20099;-58
2023/01/03 07:46:08;;;;;;;109.40;25.80;;;1.90;99.90;;;;;;5057396;28;20601;-56
2023/01/03 07:48:34;;;;;;;116.88;24.65;;;2.00;99.90;;;;;;5059413;28;20076;-47
2023/01/03 07:51:01;;;;;;;146.18;24.90;;;1.90;99.90;;;;;;5058485;28;20045;-48
2023/01/03 07:53:28;;;;;;;140.30;25.98;;;1.80;99.90;;;;;;5057393;28;20127;-49
2023/01/03 07:56:04;;;;;;;121.70;24.85;;;1.90;99.90;;;;;;5040505;28;20143;-58
2023/01/03 07:58:31;;;;;;;163.48;27.25;;;1.90;99.90;;;;;;5058468;28;20110;-61
2023/01/03 08:01:03;;;;;;;129.60;25.48;;;1.90;99.90;;;;;;5040517;28;20088;-54
2023/01/03 08:03:30;;;;;;;137.02;24.92;;;1.90;99.90;;;;;;5057460;28;21808;-54
2023/01/03 08:06:00;;;;;;;186.85;27.38;;;1.90;99.90;;;;;;5057026;28;20132;-51
2023/01/03 08:08:27;;;;;;;255.55;29.50;;;1.90;99.90;;;;;;5041406;28;20135;-63
2023/01/03 08:13:39;;;;;;;130.88;26.83;;;2.00;99.90;;;;;;5057658;28;20048;-61
2023/01/03 08:16:08;;;;;;;252.25;30.50;;;2.10;99.90;;;;;;5040115;28;20508;-64
2023/01/03 08:18:35;;;;;;;304.17;34.15;;;2.10;99.90;;;;;;5056736;28;20121;-50
2023/01/03 08:21:02;;;;;;;258.65;32.60;;;2.20;99.90;;;;;;5056466;28;20131;-45
2023/01/03 08:23:29;;;;;;;327.83;35.50;;;2.20;99.90;;;;;;5058617;28;20420;-63
2023/01/03 08:25:59;;;;;;;201.15;31.67;;;2.30;99.90;;;;;;5058546;28;20087;-60
2023/01/03 08:28:26;;;;;;;310.70;37.25;;;2.30;99.90;;;;;;5039716;28;20143;-53
2023/01/03 08:30:54;;;;;;;334.00;35.95;;;2.40;99.90;;;;;;5055609;28;20041;-51
2023/01/03 08:33:21;;;;;;;204.75;32.35;;;2.40;99.90;;;;;;5039808;28;20692;-47
2023/01/03 08:35:49;;;;;;;382.83;40.17;;;2.50;99.90;;;;;;5059475;28;20654;-55
2023/01/03 08:38:18;;;;;;;440.73;43.83;;;2.50;99.90;;;;;;5060664;28;20147;-49
2023/01/03 08:40:45;;;;;;;403.55;40.47;;;2.60;99.90;;;;;;5061724;28;20131;-56
2023/01/03 08:43:12;;;;;;;415.30;42.38;;;2.70;99.90;;;;;;5043958;28;20056;-58
2023/01/03 08:45:38;;;;;;;367.27;41.78;;;2.70;99.90;;;;;;5059885;28;20091;-55
2023/01/03 08:48:07;;;;;;;458.80;47.80;;;2.80;99.90;;;;;;5061501;28;20495;-56
2023/01/03 08:50:34;;;;;;;472.50;49.92;;;2.80;99.90;;;;;;5044205;28;20049;-49
2023/01/03 08:53:00;;;;;;;395.88;47.10;;;2.90;99.90;;;;;;5043756;28;20076;-49
2023/01/03 08:55:27;;;;;;;441.70;49.03;;;3.00;99.90;;;;;;5061289;28;20122;-53
2023/01/03 08:57:54;;;;;;;442.95;49.00;;;3.00;99.90;;;;;;5062678;28;20056;-58
2023/01/03 09:00:21;;;;;;;388.30;48.20;;;3.10;99.90;;;;;;5044442;28;20073;-56
2023/01/03 09:02:48;;;;;;;324.20;47.72;;;3.10;99.90;;;;;;5060471;28;20040;-49
2023/01/03 09:05:16;;;;;;;353.70;48.55;;;3.20;99.90;;;;;;5060376;28;21196;-52
2023/01/03 09:07:43;;;;;;;382.05;50.28;;;3.20;99.90;;;;;;5063108;28;20143;-53
2023/01/03 09:10:10;;;;;;;263.58;48.45;;;3.20;99.90;;;;;;5060118;28;20458;-57
2023/01/03 09:12:37;;;;;;;255.43;47.10;;;3.20;99.90;;;;;;5043580;28;20134;-56
2023/01/03 09:15:04;;;;;;;272.48;49.38;;;3.30;99.90;;;;;;5060938;28;20562;-52
2023/01/03 09:17:31;;;;;;;247.43;49.45;;;3.40;99.90;;;;;;5043339;28;20507;-54
2023/01/03 09:19:58;;;;;;;231.60;51.08;;;3.50;99.90;;;;;;5051529;28;20487;-58
2023/01/03 09:22:26;;;;;;;260.30;52.75;;;3.70;99.90;;;;;;5057472;28;20052;-51
2023/01/03 09:24:54;;;;;;;233.27;52.40;;;3.70;99.90;;;;;;5053183;28;20135;-42
2023/01/03 09:27:21;;;;;;;184.38;50.55;;;3.70;99.90;;;;;;5057440;28;21509;-56
2023/01/03 09:29:48;;;;;;;184.10;49.58;;;3.90;99.90;;;;;;5053335;28;20052;-54
2023/01/03 09:32:14;;;;;;;166.18;49.25;;;3.90;99.90;;;;;;5056069;28;20052;-58
2023/01/03 09:34:41;;;;;;;159.65;49.85;;;3.90;99.90;;;;;;5042051;28;20080;-57
2023/01/03 09:37:08;;;;;;;163.75;49.92;;;4.00;99.90;;;;;;5041949;28;20587;-60
2023/01/03 09:39:39;;;;;;;170.25;48.97;;;4.10;99.90;;;;;;5043769;28;20657;-51
2023/01/03 09:44:50;;;;;;;164.05;49.78;;;4.10;99.90;;;;;;5060159;28;20745;-59
2023/01/03 09:47:18;;;;;;;146.82;50.40;;;4.20;99.90;;;;;;5056247;28;20187;-62
2023/01/03 09:49:45;;;;;;;141.00;49.28;;;4.20;99.90;;;;;;5042561;28;20080;-59
2023/01/03 10:03:44;;;;;;;134.23;50.17;;;4.40;99.90;;;;;;5057990;28;20048;-53
2023/01/03 10:06:14;;;;;;;143.82;51.15;;;4.40;99.90;;;;;;5039304;28;20060;-41
2023/01/03 10:08:47;;;;;;;151.25;49.10;;;4.50;99.90;;;;;;5059133;28;20054;-57
2023/01/03 10:11:18;;;;;;;151.93;51.13;;;4.50;99.90;;;;;;5041489;28;20056;-59
2023/01/03 10:13:53;;;;;;;;;;;4.50;99.90;;;;;;5041318;28;21304;-52
2023/01/03 10:16:23;;;;;;;136.95;47.88;;;4.60;99.90;;;;;;5057995;28;19971;-60
2023/01/03 10:19:09;;;;;;;140.57;49.55;;;4.60;99.90;;;;;;5057339;28;20154;-53
2023/01/03 10:21:41;;;;;;;119.15;48.05;;;4.70;99.90;;;;;;5059323;28;20927;-52
2023/01/03 10:24:15;;;;;;;134.60;51.05;;;4.70;99.90;;;;;;5058023;28;20135;-49
2023/01/03 10:26:44;;;;;;;161.80;53.00;;;4.90;99.90;;;;;;5041913;28;20228;-49
2023/01/03 10:29:11;;;;;;;140.38;51.20;;;4.90;99.90;;;;;;5058151;28;20078;-41
2023/01/03 10:31:43;;;;;;;146.55;51.28;;;4.90;99.90;;;;;;5057592;28;20135;-45
2023/01/03 10:34:10;;;;;;;137.10;51.60;;;5.00;99.90;;;;;;5057237;28;20139;-46
2023/01/03 10:36:37;;;;;;;152.75;54.10;;;5.00;99.90;;;;;;5057159;28;20418;-50
2023/01/03 10:39:05;;;;;;;145.82;52.53;;;5.10;99.90;;;;;;5057811;28;20071;-53
2023/01/03 10:41:33;;;;;;;136.63;51.58;;;5.10;99.90;;;;;;5041087;28;20139;-44
2023/01/03 10:44:02;;;;;;;132.88;52.80;;;5.20;99.90;;;;;;5041684;28;20044;-57
2023/01/03 10:46:29;;;;;;;131.18;51.00;;;5.20;99.90;;;;;;5055947;28;20163;-54
2023/01/03 10:48:57;;;;;;;142.60;53.42;;;5.30;99.90;;;;;;5056221;28;20055;-54
2023/01/03 10:51:27;;;;;;;139.45;50.22;;;5.30;99.90;;;;;;5041555;28;20115;-57
2023/01/03 10:53:55;;;;;;;128.52;48.70;;;5.40;99.90;;;;;;5056832;28;20627;-52
2023/01/03 10:56:22;;;;;;;120.40;47.97;;;5.50;99.90;;;;;;5059138;28;20803;-54
2023/01/03 10:58:48;;;;;;;103.15;44.83;;;5.50;99.90;;;;;;5041858;28;20190;-56
2023/01/03 11:01:21;;;;;;;115.40;47.03;;;5.50;99.90;;;;;;5057766;28;20697;-55
2023/01/03 11:04:08;;;;;;;107.30;43.25;;;5.60;99.90;;;;;;5057983;28;20052;-42
2023/01/03 11:06:34;;;;;;;101.00;42.88;;;5.60;99.90;;;;;;5038753;28;20056;-55
2023/01/03 11:09:02;;;;;;;104.45;42.08;;;5.60;99.90;;;;;;5055554;28;20092;-59
2023/01/03 11:11:30;;;;;;;76.63;36.58;;;5.70;99.90;;;;;;5042940;28;20041;-58
2023/01/03 11:14:18;;;;;;;95.05;40.38;;;5.80;99.90;;;;;;5042222;28;20125;-56
2023/01/03 11:16:52;;;;;;;87.03;37.67;;;5.80;99.90;;;;;;5043680;28;20485;-58
2023/01/03 11:19:19;;;;;;;83.10;38.65;;;5.80;99.90;;;;;;5039889;28;20044;-47
2023/01/03 11:21:50;;;;;;;78.68;38.33;;;5.90;99.90;;;;;;5040124;28;20457;-51
2023/01/03 11:24:28;;;;;;;76.40;36.70;;;5.90;99.90;;;;;;5056061;28;20127;-58
2023/01/03 11:26:58;;;;;;;70.60;34.80;;;5.90;99.90;;;;;;5066292;28;20370;-67
2023/01/03 11:29:44;;;;;;;71.25;35.08;;;6.00;99.90;;;;;;5059697;28;20475;-61
2023/01/03 11:32:20;;;;;;;65.43;33.50;;;6.00;99.90;;;;;;5073731;28;20090;-64
2023/01/03 11:35:04;;;;;;;69.65;34.20;;;6.00;99.90;;;;;;5058837;28;20045;-54
2023/01/03 11:37:34;;;;;;;68.50;33.28;;;6.00;99.90;;;;;;5076329;28;20052;-74
2023/01/03 11:40:07;;;;;;;59.35;31.25;;;6.00;99.90;;;;;;5077575;28;20570;-64
2023/01/03 11:42:37;;;;;;;63.75;32.45;;;6.10;99.90;;;;;;5069780;28;20087;-57
2023/01/03 11:45:18;;;;;;;57.53;29.48;;;6.10;99.90;;;;;;5073862;28;20040;-56
2023/01/03 11:47:48;;;;;;;60.23;29.77;;;6.10;99.90;;;;;;5070957;28;20792;-75
2023/01/03 11:50:25;;;;;;;59.22;30.70;;;6.10;99.90;;;;;;5076576;28;20632;-65
2023/01/03 11:52:57;;;;;;;61.92;29.02;;;6.20;99.90;;;;;;5057906;28;20060;-72
2023/01/03 11:55:37;;;;;;;56.08;29.70;;;6.10;99.90;;;;;;5078299;28;20052;-62
2023/01/03 11:58:21;;;;;;;61.30;29.83;;;6.20;99.90;;;;;;5057549;28;20102;-71
2023/01/03 12:00:50;;;;;;;60.72;29.30;;;6.20;99.90;;;;;;5077375;28;20186;-75
2023/01/03 12:03:23;;;;;;;54.08;27.88;;;6.20;99.90;;;;;;5075608;28;20037;-67
2023/01/03 12:05:51;;;;;;;56.67;28.02;;;6.20;99.90;;;;;;5074410;28;20048;-63
2023/01/03 12:08:45;;;;;;;54.17;27.48;;;6.20;99.90;;;;;;5076354;28;20075;-67
2023/01/03 12:11:29;;;;;;;68.10;29.33;;;6.20;99.90;;;;;;5075968;28;20074;-69
2023/01/03 12:13:59;;;;;;;60.60;28.02;;;6.30;99.90;;;;;;5075154;28;20547;-64
2023/01/03 12:16:29;;;;;;;48.85;26.42;;;6.20;99.90;;;;;;5075183;28;20079;-66
2023/01/03 12:18:59;;;;;;;55.05;28.50;;;6.30;99.90;;;;;;5074644;28;20052;-66
2023/01/03 12:21:31;;;;;;;58.25;27.88;;;6.30;99.90;;;;;;5073079;28;20052;-69
2023/01/03 12:24:01;;;;;;;62.88;27.83;;;6.30;99.90;;;;;;5056284;28;20045;-68
2023/01/03 12:26:27;;;;;;;53.17;26.20;;;6.30;99.90;;;;;;5056381;28;20488;-62
2023/01/03 12:28:56;;;;;;;58.20;26.73;;;6.30;99.90;;;;;;5074839;28;20049;-67
2023/01/03 12:31:26;;;;;;;56.85;26.65;;;6.50;99.90;;;;;;5056882;28;20052;-65
2023/01/03 12:33:59;;;;;;;61.45;27.20;;;6.40;99.90;;;;;;5073925;28;20517;-67
2023/01/03 12:36:30;;;;;;;55.38;26.17;;;6.40;99.90;;;;;;5057466;28;20064;-69
2023/01/03 12:39:03;;;;;;;63.17;25.92;;;6.40;99.90;;;;;;5055774;28;20056;-66
2023/01/03 12:41:33;;;;;;;48.65;22.73;;;6.40;99.90;;;;;;5057548;28;20044;-62
2023/01/03 12:44:02;;;;;;;47.85;24.40;;;6.50;99.90;;;;;;5074851;28;20041;-65
2023/01/03 12:46:31;;;;;;;51.83;23.15;;;6.50;99.90;;;;;;5078035;28;20049;-71
2023/01/03 12:49:01;;;;;;;55.88;24.88;;;6.50;99.90;;;;;;5075521;28;20072;-69
2023/01/03 12:51:29;;;;;;;46.92;21.95;;;6.50;99.90;;;;;;5074504;28;20080;-66
2023/01/03 12:54:04;;;;;;;53.10;23.40;;;6.50;99.90;;;;;;5073635;28;20123;-66
2023/01/03 12:56:51;;;;;;;44.38;22.55;;;6.60;99.90;;;;;;5072912;28;20044;-67
2023/01/03 12:59:28;;;;;;;44.83;22.77;;;6.60;99.90;;;;;;5057911;28;20087;-61
2023/01/03 13:01:57;;;;;;;53.03;24.10;;;6.60;99.90;;;;;;5076459;28;20048;-58
2023/01/03 13:04:31;;;;;;;50.13;24.02;;;6.60;99.90;;;;;;5074289;28;20118;-64
2023/01/03 13:07:02;;;;;;;50.50;23.38;;;6.70;99.90;;;;;;5073718;28;20689;-54
2023/01/03 13:09:36;;;;;;;57.65;24.08;;;6.70;99.90;;;;;;5074254;28;20113;-62
2023/01/03 13:12:05;;;;;;;55.20;25.52;;;6.70;99.90;;;;;;5056349;28;20075;-65
2023/01/03 13:14:50;;;;;;;56.15;24.73;;;6.70;99.90;;;;;;5074588;28;20049;-69
2023/01/03 13:17:18;;;;;;;50.88;24.23;;;6.70;99.90;;;;;;5077973;28;20083;-70
2023/01/03 13:19:54;;;;;;;48.63;24.25;;;6.70;99.90;;;;;;5077317;28;20048;-73
2023/01/03 13:22:59;;;;;;;52.90;23.92;;;6.80;99.90;;;;;;5078926;28;20098;-65
2023/01/03 13:25:38;;;;;;;53.33;25.52;;;6.80;99.90;;;;;;5026452;28;20083;-66
2023/01/03 13:28:08;;;;;;;53.05;25.08;;;6.80;99.90;;;;;;5077420;28;20079;-71
2023/01/03 13:30:35;;;;;;;52.15;25.42;;;6.80;99.90;;;;;;5076217;28;20447;-67
2023/01/03 13:33:15;;;;;;;54.90;26.95;;;6.80;99.90;;;;;;5091023;28;20385;-63
2023/01/03 13:36:02;;;;;;;52.05;25.98;;;6.90;99.90;;;;;;5074665;28;20114;-72
2023/01/03 13:38:30;;;;;;;54.63;25.58;;;6.90;99.90;;;;;;5071937;28;20569;-66
2023/01/03 13:40:58;;;;;;;52.95;24.48;;;6.90;99.90;;;;;;5056839;28;20442;-68
2023/01/03 13:43:28;;;;;;;54.92;25.08;;;7.00;99.90;;;;;;5052144;28;20117;-57
2023/01/03 13:46:07;;;;;;;53.65;24.52;;;7.00;99.90;;;;;;5058539;28;20121;-58